Time;durP1;ratioP1;P1;durP2;ratioP2;P2;SDS_P1;SDS_P2;PMS_P1;PMS_P2;Temp;Humidity;BMP_temperature;BMP_pressure;BME280_temperature;BME280_humidity;BME280_pressure;Samples;Min_cycle;Max_cycle;Signal;HPM_P1;HPM_P2
2022/12/21 00:01:43;;;;;;;8.23;4.47;;;;;;;8.21;100.00;98594.28;4993047;28;20029;-77
2022/12/21 00:04:09;;;;;;;6.47;3.88;;;;;;;8.05;100.00;98604.28;5008653;28;20029;-76
2022/12/21 00:06:37;;;;;;;8.63;4.00;;;;;;;7.88;100.00;98619.84;5020666;28;20021;-75
2022/12/21 00:09:05;;;;;;;9.75;4.70;;;;;;;7.62;100.00;98620.41;5025764;28;20537;-76
2022/12/21 00:11:33;;;;;;;6.63;3.97;;;;;;;7.34;100.00;98611.34;5008103;28;20033;-76
2022/12/21 00:13:59;;;;;;;10.95;4.30;;;;;;;7.42;100.00;98635.47;5014610;28;20037;-76
2022/12/21 00:16:28;;;;;;;8.00;4.05;;;;;;;7.30;100.00;98626.19;5007415;28;20030;-73
2022/12/21 00:18:53;;;;;;;9.97;4.13;;;;;;;7.04;100.00;98635.56;5007077;28;20057;-75
2022/12/21 00:21:24;;;;;;;8.25;4.32;;;;;;;7.03;100.00;98644.66;5010547;28;20053;-74
2022/12/21 00:23:51;;;;;;;7.55;4.22;;;;;;;6.98;100.00;98641.69;5005358;28;20053;-77
2022/12/21 00:26:19;;;;;;;8.57;5.03;;;;;;;6.63;100.00;98578.69;5003659;28;20052;-74
2022/12/21 00:28:45;;;;;;;9.32;4.85;;;;;;;6.93;100.00;98630.66;4997135;28;20030;-75
2022/12/21 00:31:16;;;;;;;8.38;4.30;;;;;;;6.49;100.00;98562.34;5003791;28;20087;-73
2022/12/21 00:33:42;;;;;;;12.07;4.38;;;;;;;7.06;100.00;98648.84;5022593;28;20112;-75
2022/12/21 00:36:11;;;;;;;8.20;4.20;;;;;;;7.13;100.00;98649.78;5019485;28;20026;-75
2022/12/21 00:38:36;;;;;;;8.63;4.82;;;;;;;6.98;100.00;98634.44;5008928;28;20022;-73
2022/12/21 00:41:04;;;;;;;8.77;4.43;;;;;;;7.05;100.00;98641.78;5012295;28;20736;-72
2022/12/21 00:43:31;;;;;;;7.43;4.45;;;;;;;6.67;100.00;98585.38;5020982;28;20117;-74
2022/12/21 00:46:00;;;;;;;7.55;4.30;;;;;;;6.89;100.00;98627.50;5006935;28;20034;-74
2022/12/21 00:48:27;;;;;;;7.72;4.68;;;;;;;6.76;100.00;98601.25;5008767;28;20036;-71
2022/12/21 00:50:53;;;;;;;6.65;4.72;;;;;;;6.75;100.00;98596.03;5003105;28;20034;-75
2022/12/21 00:53:18;;;;;;;8.90;4.40;;;;;;;6.78;100.00;98598.34;5020151;28;20049;-74
2022/12/21 00:55:58;;;;;;;12.10;5.88;;;;;;;6.92;100.00;98632.50;5024297;28;20657;-75
2022/12/21 00:58:25;;;;;;;8.80;4.10;;;;;;;7.16;100.00;98658.31;5004597;28;20030;-73
2022/12/21 01:00:55;;;;;;;6.68;3.60;;;;;;;7.21;100.00;98620.91;5019207;28;20022;-74
2022/12/21 01:03:20;;;;;;;7.47;3.70;;;;;;;7.27;100.00;98595.13;5016629;28;20025;-74
2022/12/21 01:05:47;;;;;;;8.20;3.85;;;;;;;7.57;100.00;98630.06;5018630;28;20045;-73
2022/12/21 01:08:13;;;;;;;7.80;3.35;;;;;;;7.33;100.00;98577.38;5026065;28;20043;-74
2022/12/21 01:10:38;;;;;;;8.02;3.58;;;;;;;7.70;100.00;98630.22;5020616;28;20140;-75
2022/12/21 01:13:03;;;;;;;5.88;3.45;;;;;;;7.78;100.00;98631.97;5026187;28;20511;-74
2022/12/21 01:15:29;;;;;;;3.95;3.13;;;;;;;7.76;100.00;98607.94;5023783;28;20037;-74
2022/12/21 01:17:54;;;;;;;6.80;3.20;;;;;;;7.92;100.00;98647.25;5026385;28;20018;-72
2022/12/21 01:20:19;;;;;;;6.43;3.03;;;;;;;7.90;100.00;98647.44;5020170;28;20041;-73
2022/12/21 01:22:45;;;;;;;7.32;3.38;;;;;;;7.95;100.00;98640.66;5035756;28;20030;-73
2022/12/21 01:25:10;;;;;;;6.35;3.17;;;;;;;7.85;100.00;98649.03;5025931;28;20026;-72
2022/12/21 01:27:35;;;;;;;9.13;3.22;;;;;;;7.55;100.00;98622.19;5023034;28;20022;-73
2022/12/21 01:30:01;;;;;;;6.93;3.75;;;;;;;7.79;100.00;98663.28;5024883;28;20099;-74
2022/12/21 01:32:26;;;;;;;7.38;3.15;;;;;;;7.79;100.00;98674.88;5038985;28;20059;-74
2022/12/21 01:34:52;;;;;;;6.82;3.80;;;;;;;7.51;100.00;98610.09;5023869;28;20032;-74
2022/12/21 01:37:17;;;;;;;6.97;3.70;;;;;;;7.51;100.00;98617.34;5026581;28;20049;-74
2022/12/21 01:39:42;;;;;;;6.60;3.13;;;;;;;7.43;100.00;98596.75;5015297;28;20032;-72
2022/12/21 01:42:11;;;;;;;7.60;3.42;;;;;;;7.24;100.00;98577.47;5020567;28;20037;-75
2022/12/21 01:44:58;;;;;;;7.60;3.63;;;;;;;7.73;100.00;98662.16;5017800;28;20053;-72
2022/12/21 01:47:29;;;;;;;8.45;3.70;;;;;;;7.67;100.00;98658.34;5031357;28;20491;-74
2022/12/21 01:50:00;;;;;;;7.80;4.05;;;;;;;7.41;100.00;98615.81;5019376;28;20029;-73
2022/12/21 01:52:26;;;;;;;6.65;3.95;;;;;;;7.64;100.00;98641.75;5015082;28;20029;-74
2022/12/21 01:55:02;;;;;;;10.95;4.40;;;;;;;7.65;100.00;98633.50;5009117;28;20025;-78
2022/12/21 01:57:32;;;;;;;14.48;4.60;;;;;;;7.72;100.00;98654.28;4993074;28;20032;-75
2022/12/21 02:00:00;;;;;;;7.30;4.10;;;;;;;7.56;100.00;98613.06;4995401;28;20398;-72
2022/12/21 02:02:32;;;;;;;8.77;4.47;;;;;;;7.59;100.00;98638.78;5001908;28;20128;-75
2022/12/21 02:05:06;;;;;;;9.77;4.53;;;;;;;7.44;100.00;98620.81;5014179;28;20083;-73
2022/12/21 02:07:32;;;;;;;7.50;4.50;;;;;;;7.50;100.00;98645.31;5017476;28;20580;-74
2022/12/21 02:09:58;;;;;;;7.93;4.35;;;;;;;7.46;100.00;98648.34;5008336;28;20034;-75
2022/12/21 02:12:24;;;;;;;11.00;4.85;;;;;;;7.33;100.00;98609.66;5019018;28;20460;-75
2022/12/21 02:14:50;;;;;;;9.85;4.10;;;;;;;7.45;100.00;98632.41;5005869;28;20029;-74
2022/12/21 02:17:51;;;;;;;12.80;4.63;;;;;;;7.48;100.00;98642.78;4992942;28;20026;-76
2022/12/21 02:20:36;;;;;;;8.98;4.53;;;;;;;7.20;100.00;98595.03;5009766;28;20022;-75
2022/12/21 02:23:40;;;;;;;7.43;4.32;;;;;;;7.51;100.00;98642.41;5002811;28;20030;-73
2022/12/21 02:26:34;;;;;;;7.00;4.10;;;;;;;7.55;100.00;98651.78;4990627;28;20045;-73
2022/12/21 02:29:21;;;;;;;12.63;4.35;;;;;;;7.57;100.00;98644.38;5003626;28;20018;-74
2022/12/21 02:32:25;;;;;;;6.88;3.95;;;;;;;7.57;100.00;98641.69;5007517;28;20030;-74
2022/12/21 02:35:15;;;;;;;7.72;3.92;;;;;;;7.57;100.00;98647.06;5000138;28;20124;-73
2022/12/21 02:38:05;;;;;;;6.65;3.60;;;;;;;7.60;100.00;98640.47;5004321;28;20022;-73
2022/12/21 02:40:36;;;;;;;11.65;4.35;;;;;;;7.40;100.00;98613.28;5015231;28;20040;-74
2022/12/21 02:46:08;;;;;;;6.85;4.10;;;;;;;7.58;100.00;98642.50;5012601;28;20130;-75
2022/12/21 02:48:52;;;;;;;7.05;4.40;;;;;;;7.71;100.00;98647.22;5022390;28;20017;-72
2022/12/21 02:51:24;;;;;;;7.28;3.83;;;;;;;7.71;100.00;98656.13;5002440;28;20490;-74
2022/12/21 02:53:49;;;;;;;9.70;4.70;;;;;;;7.61;100.00;98636.75;5000980;28;20593;-71
2022/12/21 02:56:16;;;;;;;12.07;5.10;;;;;;;7.35;100.00;98599.56;5007352;28;20053;-73
2022/12/21 02:58:41;;;;;;;11.27;4.68;;;;;;;7.45;100.00;98625.16;5017142;28;20060;-74
2022/12/21 03:01:28;;;;;;;8.88;5.13;;;;;;;7.27;100.00;98592.41;5021180;28;20026;-74
2022/12/21 03:04:25;;;;;;;9.80;4.63;;;;;;;7.60;100.00;98641.28;5005851;28;20057;-76
2022/12/21 03:07:36;;;;;;;12.63;4.97;;;;;;;7.59;100.00;98633.41;4989791;28;20038;-75
2022/12/21 03:10:18;;;;;;;10.05;4.72;;;;;;;7.59;100.00;98628.84;4992808;28;20037;-73
2022/12/21 03:12:49;;;;;;;10.13;4.75;;;;;;;7.66;100.00;98645.09;5011335;28;20459;-73
2022/12/21 03:15:23;;;;;;;8.32;5.30;;;;;;;7.54;100.00;98633.13;5010144;28;20045;-74
2022/12/21 03:17:55;;;;;;;11.13;5.15;;;;;;;7.63;100.00;98648.16;5009483;28;20026;-74
2022/12/21 03:20:54;;;;;;;11.55;5.03;;;;;;;7.58;100.00;98635.25;5001259;28;20037;-72
2022/12/21 03:23:45;;;;;;;10.18;5.00;;;;;;;7.61;100.00;98631.34;5016869;28;20057;-74
2022/12/21 03:26:18;;;;;;;11.82;5.25;;;;;;;7.60;100.00;98629.69;5020374;28;20100;-70
2022/12/21 03:28:46;;;;;;;10.27;5.22;;;;;;;7.54;100.00;98623.19;5015701;28;20010;-70
2022/12/21 03:31:18;;;;;;;11.45;4.75;;;;;;;7.60;100.00;98625.16;5016534;28;20106;-72
2022/12/21 03:34:03;;;;;;;7.50;4.70;;;;;;;7.53;100.00;98613.44;5010622;28;20041;-72
2022/12/21 03:36:48;;;;;;;7.85;5.00;;;;;;;7.59;100.00;98625.31;5015171;28;20025;-75
2022/12/21 03:39:18;;;;;;;9.00;4.85;;;;;;;7.51;100.00;98599.34;5002864;28;20499;-73
2022/12/21 03:41:49;;;;;;;;;;;;;;;7.69;100.00;98633.94;5023216;28;20025;-73
2022/12/21 03:44:19;;;;;;;10.63;4.65;;;;;;;7.72;100.00;98621.94;5008305;28;20375;-73
2022/12/21 03:46:57;;;;;;;10.02;4.63;;;;;;;7.58;100.00;98607.50;5000399;28;20057;-74
2022/12/21 03:49:30;;;;;;;10.00;4.55;;;;;;;7.72;100.00;98630.03;4989228;28;20041;-72
2022/12/21 03:52:12;;;;;;;14.15;4.68;;;;;;;7.64;100.00;98621.03;5002758;28;20580;-72
2022/12/21 03:55:33;;;;;;;11.52;4.95;;;;;;;7.76;100.00;98617.88;5013415;28;20350;-74
2022/12/21 03:58:00;;;;;;;9.70;4.72;;;;;;;7.72;100.00;98613.88;4989836;28;20041;-74
2022/12/21 04:00:29;;;;;;;7.03;3.97;;;;;;;7.75;100.00;98611.63;5011587;28;20034;-75
2022/12/21 04:03:10;;;;;;;9.23;4.03;;;;;;;7.82;100.00;98609.84;5003155;28;20032;-75
2022/12/21 04:05:48;;;;;;;6.60;3.83;;;;;;;7.82;100.00;98617.94;5009330;28;20333;-72
2022/12/21 04:08:14;;;;;;;16.60;4.93;;;;;;;7.82;100.00;98615.22;4998066;28;20113;-73
2022/12/21 04:10:40;;;;;;;10.50;4.18;;;;;;;7.80;100.00;98611.88;4995843;28;20042;-73
2022/12/21 04:13:05;;;;;;;9.25;4.45;;;;;;;7.74;100.00;98595.69;5011627;28;20026;-73
2022/12/21 04:19:57;;;;;;;6.72;3.53;;;;;;;7.80;100.00;98589.53;5035943;28;20060;-72
2022/12/21 04:21:01;;;;;;;7.60;3.58;;;;;;;7.92;100.00;98596.06;5018263;28;20803;-78
2022/12/21 04:28:54;;;;;;;5.72;3.95;;;;;;;7.62;100.00;98550.41;5018267;28;20029;-81
2022/12/21 04:31:20;;;;;;;9.93;3.70;;;;;;;7.90;100.00;98608.91;5024515;28;20037;-78
2022/12/21 04:33:45;;;;;;;6.13;3.70;;;;;;;7.96;100.00;98600.03;5029016;28;20038;-79
2022/12/21 04:38:54;;;;;;;6.85;3.20;;;;;;;7.97;100.00;98587.44;5015261;28;20556;-77
2022/12/21 04:41:19;;;;;;;10.35;3.85;;;;;;;7.89;100.00;98564.97;5029575;28;20022;-77
2022/12/21 04:43:44;;;;;;;7.57;3.08;;;;;;;8.00;100.00;98574.41;5041279;28;20462;-77
2022/12/21 04:46:12;;;;;;;8.77;3.13;;;;;;;8.25;100.00;98615.28;5022575;28;20033;-77
2022/12/21 04:48:38;;;;;;;5.95;3.13;;;;;;;7.93;100.00;98568.09;5003744;28;20104;-77
2022/12/21 04:51:06;;;;;;;5.65;3.03;;;;;;;8.23;100.00;98608.41;5009875;28;20499;-77
2022/12/21 04:53:31;;;;;;;4.78;2.75;;;;;;;8.13;100.00;98585.31;5004828;28;20034;-77
2022/12/21 04:55:56;;;;;;;6.78;3.15;;;;;;;8.15;100.00;98595.03;5003139;28;20084;-77
2022/12/21 04:58:22;;;;;;;6.55;2.90;;;;;;;8.02;100.00;98579.59;5000893;28;20048;-80
2022/12/21 05:00:47;;;;;;;5.65;3.38;;;;;;;8.06;100.00;98580.88;5011372;28;20029;-78
2022/12/21 05:03:12;;;;;;;6.32;4.00;;;;;;;8.08;100.00;98585.03;5013016;28;20034;-78
2022/12/21 05:05:50;;;;;;;5.88;3.45;;;;;;;8.05;100.00;98574.66;5002320;28;20113;-81
2022/12/21 05:08:15;;;;;;;7.53;3.35;;;;;;;8.05;100.00;98574.66;4992997;28;20500;-86
2022/12/21 05:10:41;;;;;;;7.38;3.85;;;;;;;7.99;100.00;98570.06;5001857;28;20031;-80
2022/12/21 05:13:06;;;;;;;10.45;3.78;;;;;;;7.85;100.00;98557.47;5004518;28;20113;-77
2022/12/21 05:15:37;;;;;;;6.03;3.50;;;;;;;7.88;100.00;98565.16;5022847;28;20075;-79
2022/12/21 05:18:02;;;;;;;8.63;3.10;;;;;;;8.09;100.00;98596.66;5029031;28;20022;-78
2022/12/21 05:20:27;;;;;;;12.68;3.83;;;;;;;7.62;100.00;98519.94;5008518;28;20228;-79
2022/12/21 05:22:53;;;;;;;8.13;4.43;;;;;;;7.76;100.00;98531.69;5011379;28;20022;-78
2022/12/21 05:25:18;;;;;;;15.05;4.55;;;;;;;8.20;100.00;98598.00;5019626;28;20588;-79
2022/12/21 05:27:43;;;;;;;7.78;4.05;;;;;;;8.04;100.00;98581.09;5020323;28;20086;-80
2022/12/21 05:30:09;;;;;;;13.98;4.13;;;;;;;7.97;100.00;98582.03;5018709;28;20381;-79
2022/12/21 05:32:34;;;;;;;9.55;5.00;;;;;;;7.57;100.00;98512.47;5006821;28;20025;-81
2022/12/21 05:35:00;;;;;;;7.93;4.10;;;;;;;8.00;100.00;98569.00;5011881;28;20074;-78
2022/12/21 05:37:28;;;;;;;10.63;4.25;;;;;;;7.77;100.00;98552.19;5017786;28;20032;-80
2022/12/21 05:39:53;;;;;;;7.18;4.10;;;;;;;8.08;100.00;98598.50;5006239;28;20065;-74
2022/12/21 05:42:28;;;;;;;8.27;4.20;;;;;;;8.09;100.00;98596.66;5012909;28;20021;-83
2022/12/21 05:44:53;;;;;;;8.18;3.58;;;;;;;8.03;100.00;98584.78;5028948;28;20030;-72
2022/12/21 05:47:19;;;;;;;11.48;3.65;;;;;;;8.04;100.00;98594.56;4992896;28;20040;-73
2022/12/21 05:49:44;;;;;;;6.30;3.97;;;;;;;8.01;100.00;98578.75;5004001;28;20034;-73
2022/12/21 05:52:10;;;;;;;6.07;3.33;;;;;;;8.12;100.00;98602.50;5009696;28;20485;-72
2022/12/21 05:54:35;;;;;;;8.25;3.80;;;;;;;8.09;100.00;98608.25;5014025;28;20104;-73
2022/12/21 05:57:00;;;;;;;11.70;4.82;;;;;;;8.06;100.00;98597.88;5007069;28;20145;-71
2022/12/21 05:59:26;;;;;;;10.00;4.32;;;;;;;8.03;100.00;98587.47;5012543;28;20033;-72
2022/12/21 06:01:51;;;;;;;11.10;3.70;;;;;;;8.12;100.00;98607.03;5005591;28;20056;-74
2022/12/21 06:04:16;;;;;;;8.27;3.65;;;;;;;8.09;100.00;98594.78;5005459;28;20026;-72
2022/12/21 06:06:42;;;;;;;7.45;3.85;;;;;;;8.07;100.00;98575.31;4990727;28;20030;-73
2022/12/21 06:09:07;;;;;;;7.82;3.63;;;;;;;8.10;100.00;98583.00;4996130;28;20041;-72
2022/12/21 06:11:32;;;;;;;11.15;4.00;;;;;;;8.10;100.00;98588.38;5002145;28;20025;-80
2022/12/21 06:13:58;;;;;;;10.27;4.10;;;;;;;8.18;100.00;98594.69;4999780;28;20033;-80
2022/12/21 06:16:25;;;;;;;8.95;3.75;;;;;;;8.14;100.00;98586.13;5001939;28;20052;-80
2022/12/21 06:18:52;;;;;;;6.28;3.67;;;;;;;8.18;100.00;98600.91;4989751;28;20422;-71
2022/12/21 06:21:18;;;;;;;5.97;3.22;;;;;;;8.13;100.00;98582.59;4999887;28;20034;-83
2022/12/21 06:23:45;;;;;;;11.75;3.67;;;;;;;7.97;100.00;98561.31;5021270;28;20072;-80
2022/12/21 06:26:12;;;;;;;7.47;3.53;;;;;;;8.16;100.00;98588.66;5020776;28;20017;-88
2022/12/21 06:28:38;;;;;;;6.07;3.85;;;;;;;8.09;100.00;98569.72;5017778;28;20018;-76
2022/12/21 06:31:05;;;;;;;8.57;3.95;;;;;;;8.14;100.00;98599.59;4990727;28;20033;-76
2022/12/21 06:33:30;;;;;;;8.57;4.53;;;;;;;7.99;100.00;98569.19;5003887;28;20025;-77
2022/12/21 06:35:56;;;;;;;7.78;3.80;;;;;;;8.10;100.00;98579.47;4997992;28;20053;-77
2022/12/21 06:38:22;;;;;;;7.72;3.90;;;;;;;8.06;100.00;98575.50;5003365;28;20044;-82
2022/12/21 06:40:56;;;;;;;9.88;3.90;;;;;;;8.21;100.00;98595.13;5001230;28;20049;-84
2022/12/21 06:43:22;;;;;;;8.13;4.53;;;;;;;8.08;100.00;98571.56;5007528;28;20509;-81
2022/12/21 06:45:55;;;;;;;7.43;3.72;;;;;;;8.24;100.00;98604.69;4998067;28;20117;-82
2022/12/21 06:48:23;;;;;;;6.88;4.20;;;;;;;8.26;100.00;98603.47;5009330;28;20053;-83
2022/12/21 06:50:57;;;;;;;5.25;3.53;;;;;;;8.25;100.00;98595.56;5004040;28;20030;-73
2022/12/21 06:53:24;;;;;;;10.05;3.92;;;;;;;8.28;100.00;98605.97;4988984;28;20022;-79
2022/12/21 06:55:57;;;;;;;9.07;4.05;;;;;;;8.15;100.00;98586.97;4999715;28;20083;-80
2022/12/21 06:58:22;;;;;;;7.43;3.70;;;;;;;8.27;100.00;98598.91;5017643;28;20049;-83
2022/12/21 07:00:49;;;;;;;8.90;3.90;;;;;;;8.29;100.00;98597.69;5000378;28;20029;-82
2022/12/21 07:03:14;;;;;;;11.13;4.13;;;;;;;8.38;100.00;98606.44;5002358;28;20385;-71
2022/12/21 07:05:39;;;;;;;6.85;3.42;;;;;;;8.32;100.00;98594.59;4986465;28;20153;-71
2022/12/21 07:08:05;;;;;;;8.00;3.65;;;;;;;8.32;100.00;98591.06;4996216;28;20613;-71
2022/12/21 07:10:30;;;;;;;10.45;4.03;;;;;;;8.32;100.00;98585.66;4982737;28;20073;-71
2022/12/21 07:12:55;;;;;;;7.45;3.30;;;;;;;8.45;100.00;98612.78;5005732;28;20033;-71
2022/12/21 07:15:21;;;;;;;7.95;3.63;;;;;;;8.43;100.00;98604.03;5005934;28;20105;-71
2022/12/21 07:17:46;;;;;;;5.95;3.28;;;;;;;8.50;100.00;98621.13;4998817;28;20017;-71
2022/12/21 07:20:11;;;;;;;7.72;2.92;;;;;;;8.49;100.00;98614.06;4990803;28;20036;-76
2022/12/21 07:22:36;;;;;;;6.10;2.90;;;;;;;8.57;100.00;98615.78;5003987;28;20099;-71
2022/12/21 07:25:02;;;;;;;7.38;2.95;;;;;;;8.48;100.00;98587.28;4999827;28;20034;-79
2022/12/21 07:27:27;;;;;;;7.60;3.50;;;;;;;8.62;100.00;98612.47;4999630;28;20690;-75
2022/12/21 07:29:53;;;;;;;6.00;2.55;;;;;;;8.67;100.00;98610.03;5000850;28;20034;-78
2022/12/21 07:32:18;;;;;;;4.65;2.80;;;;;;;8.66;100.00;98611.91;4993548;28;20029;-78
2022/12/21 07:34:45;;;;;;;5.63;3.05;;;;;;;8.56;100.00;98603.31;5003814;28;20018;-76
2022/12/21 07:37:10;;;;;;;8.98;2.95;;;;;;;8.47;100.00;98594.53;4991746;28;20502;-72
2022/12/21 07:39:36;;;;;;;4.95;2.95;;;;;;;8.63;100.00;98620.38;5013927;28;20033;-81
2022/12/21 07:42:01;;;;;;;6.72;2.55;;;;;;;8.67;100.00;98610.03;4998308;28;20072;-77
2022/12/21 07:44:26;;;;;;;5.50;3.45;;;;;;;8.70;100.00;98605.09;5003091;28;20040;-77
2022/12/21 07:46:51;;;;;;;9.20;3.00;;;;;;;8.65;100.00;98601.34;4996825;28;20099;-82
2022/12/21 07:49:17;;;;;;;6.22;3.00;;;;;;;8.80;100.00;98623.63;4997335;28;20118;-78
2022/12/21 07:51:42;;;;;;;7.25;3.50;;;;;;;8.49;100.00;98578.19;4996187;28;20056;-75
2022/12/21 07:54:07;;;;;;;8.70;3.20;;;;;;;8.72;100.00;98611.13;5003101;28;20036;-79
2022/12/21 07:56:33;;;;;;;7.32;3.55;;;;;;;8.74;100.00;98636.03;5002159;28;20133;-79
2022/12/21 07:58:59;;;;;;;4.93;3.30;;;;;;;8.74;100.00;98627.94;5023597;28;20013;-78
2022/12/21 08:01:26;;;;;;;12.07;3.70;;;;;;;8.60;100.00;98606.47;4996287;28;20026;-77
2022/12/21 08:03:53;;;;;;;10.35;3.70;;;;;;;8.73;100.00;98615.50;4997952;28;20424;-77
2022/12/21 08:06:18;;;;;;;6.47;3.35;;;;;;;8.78;100.00;98628.41;4987250;28;21718;-78
2022/12/21 08:08:44;;;;;;;5.72;3.00;;;;;;;8.61;100.00;98606.25;4996008;28;20017;-77
2022/12/21 08:11:12;;;;;;;6.15;3.22;;;;;;;8.77;100.00;98632.94;5013877;28;20116;-71
2022/12/21 08:13:37;;;;;;;7.90;3.30;;;;;;;8.72;100.00;98619.22;5011660;28;20021;-84
2022/12/21 08:16:05;;;;;;;8.10;4.18;;;;;;;8.77;100.00;98632.09;4988711;28;20525;-79
2022/12/21 08:18:32;;;;;;;9.68;3.85;;;;;;;8.66;100.00;98616.47;4992258;28;20022;-80
2022/12/21 08:20:58;;;;;;;5.50;3.05;;;;;;;8.62;100.00;98618.75;4997282;28;20037;-74
2022/12/21 08:23:23;;;;;;;5.78;3.40;;;;;;;8.66;100.00;98627.25;5005026;28;20030;-71
2022/12/21 08:25:49;;;;;;;8.77;4.65;;;;;;;8.64;100.00;98626.59;5004506;28;20028;-78
2022/12/21 08:28:14;;;;;;;6.78;4.00;;;;;;;8.71;100.00;98647.22;5013775;28;20057;-81
2022/12/21 08:30:41;;;;;;;7.00;4.28;;;;;;;8.69;100.00;98643.03;4994959;28;20068;-79
2022/12/21 08:33:07;;;;;;;9.90;3.70;;;;;;;8.75;100.00;98655.75;5002807;28;20030;-83
2022/12/21 08:35:32;;;;;;;10.05;4.25;;;;;;;8.66;100.00;98643.44;5013844;28;20022;-76
2022/12/21 08:37:57;;;;;;;9.27;4.40;;;;;;;8.66;100.00;98644.25;5013735;28;20033;-80
2022/12/21 08:40:23;;;;;;;8.98;3.33;;;;;;;8.54;100.00;98627.78;5011779;28;20021;-75
2022/12/21 08:42:48;;;;;;;5.80;3.50;;;;;;;8.60;100.00;98636.97;4993979;28;20030;-76
2022/12/21 08:45:13;;;;;;;5.43;3.42;;;;;;;8.64;100.00;98648.19;5008222;28;20037;-71
2022/12/21 08:47:39;;;;;;;8.40;4.00;;;;;;;8.56;100.00;98641.91;4994393;28;20022;-79
2022/12/21 08:50:05;;;;;;;9.38;3.65;;;;;;;8.58;100.00;98654.38;5016048;28;20514;-78
2022/12/21 08:52:31;;;;;;;6.28;3.28;;;;;;;8.54;100.00;98638.59;4986383;28;20033;-72
2022/12/21 08:54:56;;;;;;;7.30;3.42;;;;;;;8.60;100.00;98647.75;5012826;28;20430;-77
2022/12/21 08:57:21;;;;;;;6.95;3.67;;;;;;;8.58;100.00;98644.41;4991083;28;20250;-77
2022/12/21 08:59:46;;;;;;;10.55;4.05;;;;;;;8.60;100.00;98650.44;5011711;28;20034;-77
2022/12/21 09:02:12;;;;;;;10.15;3.78;;;;;;;8.50;100.00;98642.69;4994004;28;20126;-71
2022/12/21 09:04:37;;;;;;;9.75;4.50;;;;;;;8.63;100.00;98660.00;5009093;28;20501;-80
2022/12/21 09:07:02;;;;;;;7.45;4.35;;;;;;;8.65;100.00;98652.56;5015704;28;20447;-76
2022/12/21 09:09:28;;;;;;;7.68;3.97;;;;;;;8.60;100.00;98636.13;5013159;28;20440;-75
2022/12/21 09:11:53;;;;;;;10.15;4.15;;;;;;;8.76;100.00;98665.53;4996396;28;20088;-71
2022/12/21 09:14:19;;;;;;;12.05;3.80;;;;;;;8.60;100.00;98641.53;5011301;28;20021;-69
2022/12/21 09:16:44;;;;;;;7.07;3.22;;;;;;;8.64;100.00;98657.09;5012177;28;20392;-76
2022/12/21 09:19:09;;;;;;;7.72;4.40;;;;;;;8.68;100.00;98650.31;5010454;28;20026;-70
2022/12/21 09:21:34;;;;;;;8.60;4.10;;;;;;;8.78;100.00;98666.16;5004408;28;20029;-70
2022/12/21 09:24:00;;;;;;;8.30;4.47;;;;;;;8.74;100.00;98656.78;5011211;28;20030;-70
2022/12/21 09:26:25;;;;;;;8.73;4.28;;;;;;;8.72;100.00;98654.28;5011680;28;20025;-70
2022/12/21 09:28:50;;;;;;;7.38;3.83;;;;;;;8.76;100.00;98660.13;4994443;28;20025;-70
2022/12/21 09:31:21;;;;;;;8.18;3.88;;;;;;;8.87;100.00;98673.06;5010676;28;20598;-70
2022/12/21 09:33:46;;;;;;;8.52;3.65;;;;;;;8.91;100.00;98676.22;5006427;28;20037;-70
2022/12/21 09:36:13;;;;;;;10.98;3.65;;;;;;;8.79;100.00;98662.44;5005389;28;20033;-70
2022/12/21 09:38:38;;;;;;;9.80;3.60;;;;;;;8.81;100.00;98668.47;5006191;28;20026;-79
2022/12/21 09:41:25;;;;;;;8.32;3.67;;;;;;;8.87;100.00;98678.47;4997184;28;20033;-78
2022/12/21 09:44:13;;;;;;;8.35;4.30;;;;;;;8.80;100.00;98663.25;5002396;28;20036;-70
2022/12/21 09:46:42;;;;;;;11.73;6.47;;;;;;;8.86;100.00;98652.53;4988041;28;20507;-70
2022/12/21 09:49:16;;;;;;;13.60;5.38;;;;;;;8.89;100.00;98665.63;5006948;28;20055;-70
2022/12/21 09:51:49;;;;;;;9.15;5.35;;;;;;;8.98;100.00;98672.53;4998298;28;20376;-81
2022/12/21 09:54:19;;;;;;;12.73;5.50;;;;;;;8.93;100.00;98668.75;5018160;28;20026;-80
2022/12/21 09:56:47;;;;;;;;;;;;;;;9.07;100.00;98675.94;5007946;28;20034;-80
2022/12/21 09:59:16;;;;;;;9.18;4.22;;;;;;;9.00;100.00;98670.47;4998435;28;19953;-81
2022/12/21 10:02:00;;;;;;;10.88;4.00;;;;;;;9.07;100.00;98685.91;4998731;28;20057;-81
2022/12/21 10:04:38;;;;;;;10.35;3.78;;;;;;;9.06;100.00;98674.25;5011024;28;20025;-80
2022/12/21 10:07:18;;;;;;;10.15;4.03;;;;;;;9.10;100.00;98680.09;4998685;28;20030;-80
2022/12/21 10:10:18;;;;;;;10.55;3.97;;;;;;;9.19;100.00;98665.41;4993610;28;20029;-81
2022/12/21 10:13:18;;;;;;;7.72;3.17;;;;;;;9.27;100.00;98669.81;5003880;28;20432;-79
2022/12/21 10:16:12;;;;;;;9.82;3.28;;;;;;;9.34;100.00;98665.28;4997509;28;20494;-79
2022/12/21 10:18:56;;;;;;;6.45;2.97;;;;;;;9.35;100.00;98667.81;5002433;28;20022;-73
2022/12/21 10:21:35;;;;;;;7.35;3.22;;;;;;;9.19;100.00;98660.84;5007826;28;20035;-70
2022/12/21 10:24:03;;;;;;;12.23;4.47;;;;;;;9.10;100.00;98650.41;5005012;28;20030;-71
2022/12/21 10:26:34;;;;;;;14.68;3.25;;;;;;;9.09;100.00;98663.06;5000247;28;20112;-71
2022/12/21 10:29:06;;;;;;;7.80;3.63;;;;;;;9.16;100.00;98669.31;4992768;28;20044;-71
2022/12/21 10:31:40;;;;;;;7.15;3.70;;;;;;;9.06;100.00;98646.44;5006699;28;20096;-70
2022/12/21 10:34:24;;;;;;;6.68;3.80;;;;;;;9.20;100.00;98669.78;5135505;27;20402;-62
2022/12/21 10:36:55;;;;;;;11.02;3.78;;;;;;;9.13;100.00;98669.72;5104527;28;20032;-62
2022/12/21 10:39:21;;;;;;;7.85;3.53;;;;;;;9.11;100.00;98676.34;5086189;28;20036;-61
2022/12/21 10:42:13;;;;;;;10.30;4.00;;;;;;;9.08;100.00;98674.06;5089128;28;20055;-60
2022/12/21 10:44:40;;;;;;;6.97;3.50;;;;;;;9.05;100.00;98677.16;5081384;28;20043;-63
2022/12/21 10:47:14;;;;;;;7.10;3.65;;;;;;;9.03;100.00;98676.50;5080928;28;20114;-63
2022/12/21 10:49:43;;;;;;;9.48;3.92;;;;;;;9.00;100.00;98686.66;5076869;28;20012;-63
2022/12/21 10:52:34;;;;;;;10.85;4.78;;;;;;;8.95;100.00;98690.97;5082998;28;20024;-60
2022/12/21 10:55:00;;;;;;;12.90;4.13;;;;;;;9.01;100.00;98682.09;5078797;28;20036;-60
2022/12/21 10:57:28;;;;;;;12.07;5.18;;;;;;;9.20;100.00;98675.19;5089258;28;20031;-60
2022/12/21 10:59:54;;;;;;;9.55;5.22;;;;;;;9.48;100.00;98669.72;5094901;28;20120;-61
2022/12/21 11:02:59;;;;;;;8.73;4.72;;;;;;;9.67;100.00;98662.78;5083655;28;20024;-61
2022/12/21 11:05:37;;;;;;;9.35;4.05;;;;;;;10.84;100.00;98655.34;5075336;28;20032;-62
2022/12/21 11:08:31;;;;;;;12.65;4.30;;;;;;;10.62;100.00;98620.38;5087177;28;20028;-62
2022/12/21 11:11:03;;;;;;;9.68;3.58;;;;;;;10.34;100.00;98622.44;5065648;28;20098;-62
2022/12/21 11:13:32;;;;;;;9.48;3.50;;;;;;;11.27;100.00;98619.69;5090660;28;20125;-62
2022/12/21 11:16:04;;;;;;;7.15;3.47;;;;;;;11.53;100.00;98597.09;5087082;28;20020;-62
2022/12/21 11:18:46;;;;;;;6.97;3.20;;;;;;;11.32;100.00;98600.94;5087862;28;20028;-62
2022/12/21 11:21:30;;;;;;;5.55;2.90;;;;;;;12.11;100.00;98602.47;5088067;28;20040;-63
2022/12/21 11:23:59;;;;;;;8.65;3.22;;;;;;;11.63;100.00;98594.75;5082988;28;20028;-63
2022/12/21 11:26:28;;;;;;;7.87;3.43;;;;;;;11.63;100.00;98601.00;5084022;28;20028;-63
2022/12/21 11:29:06;;;;;;;7.20;2.97;;;;;;;11.33;100.00;98599.88;5088129;28;20043;-63
2022/12/21 11:31:33;;;;;;;4.47;2.40;;;;;;;11.44;100.00;98604.63;5087988;28;20053;-63
2022/12/21 11:33:58;;;;;;;6.95;2.97;;;;;;;11.22;100.00;98600.53;5093526;28;20032;-64
2022/12/21 11:36:24;;;;;;;9.93;2.88;;;;;;;10.93;100.00;98597.25;5086112;28;20078;-64
2022/12/21 11:38:49;;;;;;;6.07;2.80;;;;;;;10.79;100.00;98592.91;5083172;28;20446;-64
2022/12/21 11:41:26;;;;;;;11.90;3.00;;;;;;;10.61;100.00;98602.50;5083324;28;20063;-64
2022/12/21 11:43:52;;;;;;;8.88;2.85;;;;;;;10.39;100.00;98587.50;5082474;28;20630;-64
2022/12/21 11:46:45;;;;;;;7.25;2.97;;;;;;;10.57;100.00;98598.53;5089854;28;20156;-64
2022/12/21 11:49:26;;;;;;;7.88;3.15;;;;;;;10.46;100.00;98599.16;5067817;28;20029;-62
2022/12/21 11:55:42;;;;;;;4.68;2.92;;;;;;;10.53;100.00;98583.75;5032532;22;20447;-61
2022/12/21 11:58:29;;;;;;;5.97;2.75;;;;;;;10.52;100.00;98596.44;4975668;28;20042;-61
2022/12/21 12:01:33;;;;;;;4.63;3.03;;;;;;;10.50;100.00;98595.00;5014336;28;20021;-62
2022/12/21 12:04:24;;;;;;;4.65;3.10;;;;;;;10.36;100.00;98591.47;5005960;28;20084;-61
2022/12/21 12:06:55;;;;;;;8.77;4.05;;;;;;;10.42;100.00;98587.91;5008866;28;20029;-61